sensor_id;sensor_type;location;lat;lon;timestamp;pressure;altitude;pressure_sealevel;temperature;humidity
68193;BME280;55012;47.562;18.414;2023-12-20T00:00:01;100122.84;;;-1.68;100.00
68193;BME280;55012;47.562;18.414;2023-12-20T00:02:26;100121.53;;;-1.66;100.00
68193;BME280;55012;47.562;18.414;2023-12-20T00:04:51;100115.94;;;-1.70;100.00
68193;BME280;55012;47.562;18.414;2023-12-20T00:07:17;100116.84;;;-1.81;100.00
68193;BME280;55012;47.562;18.414;2023-12-20T00:09:42;100107.97;;;-1.86;100.00
68193;BME280;55012;47.562;18.414;2023-12-20T00:12:07;100110.09;;;-1.88;100.00
68193;BME280;55012;47.562;18.414;2023-12-20T00:14:33;100102.38;;;-1.90;100.00
68193;BME280;55012;47.562;18.414;2023-12-20T00:16:58;100099.31;;;-1.99;100.00
68193;BME280;55012;47.562;18.414;2023-12-20T00:19:23;100090.47;;;-2.04;100.00
68193;BME280;55012;47.562;18.414;2023-12-20T00:21:49;100093.13;;;-2.04;100.00
68193;BME280;55012;47.562;18.414;2023-12-20T00:24:14;100085.47;;;-2.01;100.00
68193;BME280;55012;47.562;18.414;2023-12-20T00:26:40;100081.38;;;-1.91;100.00
68193;BME280;55012;47.562;18.414;2023-12-20T00:29:05;100076.88;;;-1.91;100.00
68193;BME280;55012;47.562;18.414;2023-12-20T00:31:30;100070.56;;;-1.90;100.00
68193;BME280;55012;47.562;18.414;2023-12-20T00:33:56;100063.88;;;-1.92;100.00
68193;BME280;55012;47.562;18.414;2023-12-20T00:36:21;100062.25;;;-1.93;100.00
68193;BME280;55012;47.562;18.414;2023-12-20T00:38:47;100061.22;;;-1.92;100.00
68193;BME280;55012;47.562;18.414;2023-12-20T00:41:13;100056.72;;;-1.92;100.00
68193;BME280;55012;47.562;18.414;2023-12-20T00:43:38;100064.34;;;-1.95;100.00
68193;BME280;55012;47.562;18.414;2023-12-20T00:46:03;100060.16;;;-1.91;100.00
68193;BME280;55012;47.562;18.414;2023-12-20T00:48:29;100061.75;;;-1.90;100.00
68193;BME280;55012;47.562;18.414;2023-12-20T00:50:57;100068.13;;;-1.91;100.00
68193;BME280;55012;47.562;18.414;2023-12-20T00:53:22;100053.59;;;-1.89;100.00
68193;BME280;55012;47.562;18.414;2023-12-20T00:55:48;100058.16;;;-1.84;100.00
68193;BME280;55012;47.562;18.414;2023-12-20T00:58:13;100054.94;;;-1.86;100.00
68193;BME280;55012;47.562;18.414;2023-12-20T01:00:40;100058.94;;;-1.84;100.00
68193;BME280;55012;47.562;18.414;2023-12-20T01:03:07;100062.31;;;-1.72;100.00
68193;BME280;55012;47.562;18.414;2023-12-20T01:05:32;100056.59;;;-1.63;100.00
68193;BME280;55012;47.562;18.414;2023-12-20T01:07:57;100057.47;;;-1.58;100.00
68193;BME280;55012;47.562;18.414;2023-12-20T01:10:23;100055.69;;;-1.52;100.00
68193;BME280;55012;47.562;18.414;2023-12-20T01:12:48;100054.34;;;-1.55;100.00
68193;BME280;55012;47.562;18.414;2023-12-20T01:15:14;100039.69;;;-1.57;100.00
68193;BME280;55012;47.562;18.414;2023-12-20T01:17:39;100055.69;;;-1.52;100.00
68193;BME280;55012;47.562;18.414;2023-12-20T01:20:05;100047.00;;;-1.48;100.00
68193;BME280;55012;47.562;18.414;2023-12-20T01:22:31;100046.50;;;-1.45;100.00
68193;BME280;55012;47.562;18.414;2023-12-20T01:24:56;100044.09;;;-1.46;100.00
68193;BME280;55012;47.562;18.414;2023-12-20T01:27:21;100031.31;;;-1.49;100.00
68193;BME280;55012;47.562;18.414;2023-12-20T01:29:47;100036.13;;;-1.46;100.00
68193;BME280;55012;47.562;18.414;2023-12-20T01:32:12;100017.06;;;-1.43;100.00
68193;BME280;55012;47.562;18.414;2023-12-20T01:34:38;100025.03;;;-1.43;100.00
68193;BME280;55012;47.562;18.414;2023-12-20T01:37:03;100020.50;;;-1.43;100.00
68193;BME280;55012;47.562;18.414;2023-12-20T01:39:29;100033.59;;;-1.36;100.00
68193;BME280;55012;47.562;18.414;2023-12-20T01:41:54;100029.44;;;-1.32;100.00
68193;BME280;55012;47.562;18.414;2023-12-20T01:44:19;100019.63;;;-1.31;100.00
68193;BME280;55012;47.562;18.414;2023-12-20T01:46:45;100012.69;;;-1.32;100.00
68193;BME280;55012;47.562;18.414;2023-12-20T01:49:11;100002.53;;;-1.40;100.00
68193;BME280;55012;47.562;18.414;2023-12-20T01:51:37;99992.25;;;-1.54;100.00
68193;BME280;55012;47.562;18.414;2023-12-20T01:54:03;99984.72;;;-1.62;100.00
68193;BME280;55012;47.562;18.414;2023-12-20T01:56:30;99964.72;;;-1.70;100.00
68193;BME280;55012;47.562;18.414;2023-12-20T01:58:56;99968.44;;;-1.71;100.00
68193;BME280;55012;47.562;18.414;2023-12-20T02:01:22;99960.78;;;-1.67;100.00
68193;BME280;55012;47.562;18.414;2023-12-20T02:03:47;99953.06;;;-1.68;100.00
68193;BME280;55012;47.562;18.414;2023-12-20T02:06:13;99954.19;;;-1.64;100.00
68193;BME280;55012;47.562;18.414;2023-12-20T02:08:39;99953.63;;;-1.66;100.00
68193;BME280;55012;47.562;18.414;2023-12-20T02:11:04;99953.31;;;-1.70;100.00
68193;BME280;55012;47.562;18.414;2023-12-20T02:13:30;99942.34;;;-1.79;100.00
68193;BME280;55012;47.562;18.414;2023-12-20T02:15:56;99930.13;;;-1.80;100.00
68193;BME280;55012;47.562;18.414;2023-12-20T02:18:22;99927.47;;;-1.80;100.00
68193;BME280;55012;47.562;18.414;2023-12-20T02:20:47;99933.84;;;-1.81;100.00
68193;BME280;55012;47.562;18.414;2023-12-20T02:23:12;99930.13;;;-1.80;100.00
68193;BME280;55012;47.562;18.414;2023-12-20T02:25:38;99930.44;;;-1.76;100.00
68193;BME280;55012;47.562;18.414;2023-12-20T02:28:03;99937.03;;;-1.79;100.00
68193;BME280;55012;47.562;18.414;2023-12-20T02:30:30;99931.75;;;-1.79;100.00
68193;BME280;55012;47.562;18.414;2023-12-20T02:32:55;99922.72;;;-1.78;100.00
68193;BME280;55012;47.562;18.414;2023-12-20T02:35:21;99921.44;;;-1.75;100.00
68193;BME280;55012;47.562;18.414;2023-12-20T02:37:46;99922.66;;;-1.83;100.00
68193;BME280;55012;47.562;18.414;2023-12-20T02:40:11;99928.22;;;-1.84;100.00
68193;BME280;55012;47.562;18.414;2023-12-20T02:42:37;99932.97;;;-1.86;100.00
68193;BME280;55012;47.562;18.414;2023-12-20T02:45:02;99939.88;;;-1.85;100.00
68193;BME280;55012;47.562;18.414;2023-12-20T02:47:28;99941.16;;;-1.88;100.00
68193;BME280;55012;47.562;18.414;2023-12-20T02:49:55;99937.72;;;-1.88;100.00
68193;BME280;55012;47.562;18.414;2023-12-20T02:52:21;99939.44;;;-1.77;100.00
68193;BME280;55012;47.562;18.414;2023-12-20T02:54:46;99940.31;;;-1.72;100.00
68193;BME280;55012;47.562;18.414;2023-12-20T02:57:11;99938.72;;;-1.73;100.00
68193;BME280;55012;47.562;18.414;2023-12-20T02:59:37;99940.06;;;-1.70;100.00
68193;BME280;55012;47.562;18.414;2023-12-20T03:02:02;99943.16;;;-1.56;100.00
68193;BME280;55012;47.562;18.414;2023-12-20T03:04:27;99937.16;;;-1.47;100.00
68193;BME280;55012;47.562;18.414;2023-12-20T03:06:53;99942.31;;;-1.35;100.00
68193;BME280;55012;47.562;18.414;2023-12-20T03:09:18;99932.75;;;-1.36;100.00
68193;BME280;55012;47.562;18.414;2023-12-20T03:11:44;99923.19;;;-1.37;100.00
68193;BME280;55012;47.562;18.414;2023-12-20T03:14:09;99931.66;;;-1.40;100.00
68193;BME280;55012;47.562;18.414;2023-12-20T03:16:34;99945.16;;;-1.42;100.00
68193;BME280;55012;47.562;18.414;2023-12-20T03:19:00;99946.56;;;-1.34;100.00
68193;BME280;55012;47.562;18.414;2023-12-20T03:21:25;99941.06;;;-1.27;100.00
68193;BME280;55012;47.562;18.414;2023-12-20T03:23:50;99940.03;;;-1.26;100.00
68193;BME280;55012;47.562;18.414;2023-12-20T03:26:16;99930.53;;;-1.22;100.00
68193;BME280;55012;47.562;18.414;2023-12-20T03:28:41;99916.19;;;-1.21;100.00
68193;BME280;55012;47.562;18.414;2023-12-20T03:31:06;99926.47;;;-1.30;100.00
68193;BME280;55012;47.562;18.414;2023-12-20T03:33:32;99929.59;;;-1.33;100.00
68193;BME280;55012;47.562;18.414;2023-12-20T03:35:57;99936.56;;;-1.27;100.00
68193;BME280;55012;47.562;18.414;2023-12-20T03:38:22;99933.97;;;-1.22;100.00
68193;BME280;55012;47.562;18.414;2023-12-20T03:40:51;99933.78;;;-1.15;100.00
68193;BME280;55012;47.562;18.414;2023-12-20T03:43:16;99926.91;;;-1.11;100.00
68193;BME280;55012;47.562;18.414;2023-12-20T03:45:44;99925.84;;;-1.10;100.00
68193;BME280;55012;47.562;18.414;2023-12-20T03:48:09;99919.25;;;-1.07;100.00
68193;BME280;55012;47.562;18.414;2023-12-20T03:50:35;99919.81;;;-1.05;100.00
68193;BME280;55012;47.562;18.414;2023-12-20T03:53:01;99913.94;;;-1.07;100.00
68193;BME280;55012;47.562;18.414;2023-12-20T03:55:26;99904.00;;;-1.17;100.00
68193;BME280;55012;47.562;18.414;2023-12-20T03:57:51;99893.34;;;-1.22;100.00
68193;BME280;55012;47.562;18.414;2023-12-20T04:00:17;99887.97;;;-1.32;100.00
68193;BME280;55012;47.562;18.414;2023-12-20T04:02:42;99885.25;;;-1.37;100.00
68193;BME280;55012;47.562;18.414;2023-12-20T04:05:09;99890.28;;;-1.36;100.00
68193;BME280;55012;47.562;18.414;2023-12-20T04:07:35;99876.16;;;-1.42;100.00
68193;BME280;55012;47.562;18.414;2023-12-20T04:10:01;99871.44;;;-1.39;100.00
68193;BME280;55012;47.562;18.414;2023-12-20T04:12:30;99862.31;;;-1.49;100.00
68193;BME280;55012;47.562;18.414;2023-12-20T04:14:56;99862.44;;;-1.60;100.00
68193;BME280;55012;47.562;18.414;2023-12-20T04:17:21;99853.69;;;-1.61;100.00
68193;BME280;55012;47.562;18.414;2023-12-20T04:19:50;99847.88;;;-1.58;100.00
68193;BME280;55012;47.562;18.414;2023-12-20T04:22:16;99847.41;;;-1.55;100.00
68193;BME280;55012;47.562;18.414;2023-12-20T04:24:41;99830.41;;;-1.54;100.00
68193;BME280;55012;47.562;18.414;2023-12-20T04:27:07;99834.13;;;-1.55;100.00
68193;BME280;55012;47.562;18.414;2023-12-20T04:29:33;99831.97;;;-1.58;100.00
68193;BME280;55012;47.562;18.414;2023-12-20T04:31:58;99823.91;;;-1.68;100.00
68193;BME280;55012;47.562;18.414;2023-12-20T04:34:23;99823.88;;;-1.73;100.00
68193;BME280;55012;47.562;18.414;2023-12-20T04:36:49;99820.91;;;-1.77;100.00
68193;BME280;55012;47.562;18.414;2023-12-20T04:39:14;99829.97;;;-1.73;100.00
68193;BME280;55012;47.562;18.414;2023-12-20T04:41:42;99831.94;;;-1.63;100.00
68193;BME280;55012;47.562;18.414;2023-12-20T04:44:08;99834.94;;;-1.54;100.00
68193;BME280;55012;47.562;18.414;2023-12-20T04:46:33;99839.25;;;-1.48;100.00
68193;BME280;55012;47.562;18.414;2023-12-20T04:48:58;99849.63;;;-1.42;100.00
68193;BME280;55012;47.562;18.414;2023-12-20T04:51:24;99845.69;;;-1.39;100.00
68193;BME280;55012;47.562;18.414;2023-12-20T04:53:49;99849.69;;;-1.36;100.00
68193;BME280;55012;47.562;18.414;2023-12-20T04:56:15;99842.53;;;-1.36;100.00
68193;BME280;55012;47.562;18.414;2023-12-20T04:58:41;99835.34;;;-1.40;100.00
68193;BME280;55012;47.562;18.414;2023-12-20T05:01:08;99832.56;;;-1.51;100.00
68193;BME280;55012;47.562;18.414;2023-12-20T05:03:33;99819.75;;;-1.59;100.00
68193;BME280;55012;47.562;18.414;2023-12-20T05:05:59;99808.31;;;-1.64;100.00
68193;BME280;55012;47.562;18.414;2023-12-20T05:08:24;99802.66;;;-1.73;100.00
68193;BME280;55012;47.562;18.414;2023-12-20T05:10:51;99788.47;;;-1.84;100.00
68193;BME280;55012;47.562;18.414;2023-12-20T05:13:16;99807.47;;;-1.92;100.00
68193;BME280;55012;47.562;18.414;2023-12-20T05:15:42;99784.38;;;-1.96;100.00
68193;BME280;55012;47.562;18.414;2023-12-20T05:18:07;99782.41;;;-2.06;100.00
68193;BME280;55012;47.562;18.414;2023-12-20T05:20:32;99779.41;;;-2.15;100.00
68193;BME280;55012;47.562;18.414;2023-12-20T05:22:58;99763.34;;;-2.25;100.00
68193;BME280;55012;47.562;18.414;2023-12-20T05:25:23;99760.72;;;-2.25;100.00
68193;BME280;55012;47.562;18.414;2023-12-20T05:27:48;99764.91;;;-2.29;100.00
68193;BME280;55012;47.562;18.414;2023-12-20T05:30:14;99767.00;;;-2.31;100.00
68193;BME280;55012;47.562;18.414;2023-12-20T05:32:39;99766.75;;;-2.30;100.00
68193;BME280;55012;47.562;18.414;2023-12-20T05:35:05;99762.31;;;-2.24;100.00
68193;BME280;55012;47.562;18.414;2023-12-20T05:37:30;99763.06;;;-2.29;100.00
68193;BME280;55012;47.562;18.414;2023-12-20T05:39:56;99758.69;;;-2.40;100.00
68193;BME280;55012;47.562;18.414;2023-12-20T05:42:21;99753.84;;;-2.48;100.00
68193;BME280;55012;47.562;18.414;2023-12-20T05:44:46;99777.91;;;-2.49;100.00
68193;BME280;55012;47.562;18.414;2023-12-20T05:47:12;99809.22;;;-2.46;100.00
68193;BME280;55012;47.562;18.414;2023-12-20T05:49:37;99815.47;;;-2.52;100.00
68193;BME280;55012;47.562;18.414;2023-12-20T05:52:02;99819.13;;;-2.75;100.00
68193;BME280;55012;47.562;18.414;2023-12-20T05:54:28;99820.03;;;-3.03;100.00
68193;BME280;55012;47.562;18.414;2023-12-20T05:56:53;99817.16;;;-3.19;100.00
68193;BME280;55012;47.562;18.414;2023-12-20T05:59:18;99823.09;;;-3.28;100.00
68193;BME280;55012;47.562;18.414;2023-12-20T06:01:44;99814.41;;;-3.41;100.00
68193;BME280;55012;47.562;18.414;2023-12-20T06:04:09;99819.13;;;-3.43;100.00
68193;BME280;55012;47.562;18.414;2023-12-20T06:06:40;99826.91;;;-3.36;100.00
68193;BME280;55012;47.562;18.414;2023-12-20T06:09:06;99824.38;;;-3.31;100.00
68193;BME280;55012;47.562;18.414;2023-12-20T06:11:31;99830.88;;;-3.22;100.00
68193;BME280;55012;47.562;18.414;2023-12-20T06:13:56;99850.19;;;-3.04;100.00
68193;BME280;55012;47.562;18.414;2023-12-20T06:16:22;99839.28;;;-2.91;100.00
68193;BME280;55012;47.562;18.414;2023-12-20T06:18:47;99847.44;;;-2.76;100.00
68193;BME280;55012;47.562;18.414;2023-12-20T06:21:13;99839.75;;;-2.61;100.00
68193;BME280;55012;47.562;18.414;2023-12-20T06:23:38;99854.50;;;-2.48;100.00
68193;BME280;55012;47.562;18.414;2023-12-20T06:26:04;99847.31;;;-2.31;100.00
68193;BME280;55012;47.562;18.414;2023-12-20T06:28:29;99852.97;;;-2.22;100.00
68193;BME280;55012;47.562;18.414;2023-12-20T06:30:55;99857.53;;;-2.17;100.00
68193;BME280;55012;47.562;18.414;2023-12-20T06:33:20;99852.56;;;-2.14;100.00
68193;BME280;55012;47.562;18.414;2023-12-20T06:35:47;99833.22;;;-2.14;100.00
68193;BME280;55012;47.562;18.414;2023-12-20T06:38:12;99830.56;;;-2.14;100.00
68193;BME280;55012;47.562;18.414;2023-12-20T06:40:38;99847.47;;;-2.15;100.00
68193;BME280;55012;47.562;18.414;2023-12-20T06:43:03;99842.81;;;-2.08;100.00
68193;BME280;55012;47.562;18.414;2023-12-20T06:45:28;99857.22;;;-1.99;100.00
68193;BME280;55012;47.562;18.414;2023-12-20T06:47:54;99856.78;;;-1.91;100.00
68193;BME280;55012;47.562;18.414;2023-12-20T06:50:20;99857.03;;;-1.92;100.00
68193;BME280;55012;47.562;18.414;2023-12-20T06:52:45;99852.06;;;-1.89;100.00
68193;BME280;55012;47.562;18.414;2023-12-20T06:55:11;99845.47;;;-1.86;100.00
68193;BME280;55012;47.562;18.414;2023-12-20T06:57:36;99842.06;;;-1.82;100.00
68193;BME280;55012;47.562;18.414;2023-12-20T07:00:02;99845.81;;;-1.78;100.00
68193;BME280;55012;47.562;18.414;2023-12-20T07:02:28;99862.88;;;-1.68;100.00
68193;BME280;55012;47.562;18.414;2023-12-20T07:04:55;99850.97;;;-1.66;100.00
68193;BME280;55012;47.562;18.414;2023-12-20T07:07:21;99845.44;;;-1.64;100.00
68193;BME280;55012;47.562;18.414;2023-12-20T07:09:48;99843.63;;;-1.59;100.00
68193;BME280;55012;47.562;18.414;2023-12-20T07:12:14;99836.78;;;-1.55;100.00
68193;BME280;55012;47.562;18.414;2023-12-20T07:14:39;99842.38;;;-1.51;100.00
68193;BME280;55012;47.562;18.414;2023-12-20T07:17:04;99843.44;;;-1.52;100.00
68193;BME280;55012;47.562;18.414;2023-12-20T07:19:30;99836.25;;;-1.57;100.00
68193;BME280;55012;47.562;18.414;2023-12-20T07:21:55;99845.47;;;-1.59;100.00
68193;BME280;55012;47.562;18.414;2023-12-20T07:24:20;99843.34;;;-1.62;100.00
68193;BME280;55012;47.562;18.414;2023-12-20T07:26:46;99831.94;;;-1.63;100.00
68193;BME280;55012;47.562;18.414;2023-12-20T07:29:11;99829.00;;;-1.61;100.00
68193;BME280;55012;47.562;18.414;2023-12-20T07:31:36;99831.41;;;-1.60;100.00
68193;BME280;55012;47.562;18.414;2023-12-20T07:34:03;99820.25;;;-1.62;100.00
68193;BME280;55012;47.562;18.414;2023-12-20T07:36:28;99824.50;;;-1.61;100.00
68193;BME280;55012;47.562;18.414;2023-12-20T07:38:54;99827.34;;;-1.67;100.00
68193;BME280;55012;47.562;18.414;2023-12-20T07:41:19;99827.75;;;-1.81;100.00
68193;BME280;55012;47.562;18.414;2023-12-20T07:43:46;99821.22;;;-1.95;100.00
68193;BME280;55012;47.562;18.414;2023-12-20T07:46:12;99816.13;;;-2.02;100.00
68193;BME280;55012;47.562;18.414;2023-12-20T07:48:38;99826.72;;;-2.02;100.00
68193;BME280;55012;47.562;18.414;2023-12-20T07:51:06;99824.19;;;-2.13;100.00
68193;BME280;55012;47.562;18.414;2023-12-20T07:53:33;99830.19;;;-2.23;100.00
68193;BME280;55012;47.562;18.414;2023-12-20T07:55:59;99819.94;;;-2.36;100.00
68193;BME280;55012;47.562;18.414;2023-12-20T07:58:24;99818.44;;;-2.49;100.00
68193;BME280;55012;47.562;18.414;2023-12-20T08:00:50;99812.28;;;-2.55;100.00
68193;BME280;55012;47.562;18.414;2023-12-20T08:03:15;99814.84;;;-2.60;100.00
68193;BME280;55012;47.562;18.414;2023-12-20T08:05:41;99810.78;;;-2.67;100.00
68193;BME280;55012;47.562;18.414;2023-12-20T08:08:06;99816.56;;;-2.70;100.00
68193;BME280;55012;47.562;18.414;2023-12-20T08:10:32;99822.09;;;-2.72;100.00
68193;BME280;55012;47.562;18.414;2023-12-20T08:12:57;99824.97;;;-2.73;100.00
68193;BME280;55012;47.562;18.414;2023-12-20T08:15:23;99827.88;;;-2.75;100.00
68193;BME280;55012;47.562;18.414;2023-12-20T08:17:48;99826.09;;;-2.69;100.00
68193;BME280;55012;47.562;18.414;2023-12-20T08:20:16;99843.50;;;-2.57;100.00
68193;BME280;55012;47.562;18.414;2023-12-20T08:22:41;99843.06;;;-2.48;100.00
68193;BME280;55012;47.562;18.414;2023-12-20T08:25:07;99845.16;;;-2.50;100.00
68193;BME280;55012;47.562;18.414;2023-12-20T08:27:33;99844.16;;;-2.66;100.00
68193;BME280;55012;47.562;18.414;2023-12-20T08:29:59;99829.66;;;-2.80;100.00
68193;BME280;55012;47.562;18.414;2023-12-20T08:32:27;99839.75;;;-2.77;100.00
68193;BME280;55012;47.562;18.414;2023-12-20T08:34:52;99843.50;;;-2.73;100.00
68193;BME280;55012;47.562;18.414;2023-12-20T08:37:18;99849.06;;;-2.75;100.00
68193;BME280;55012;47.562;18.414;2023-12-20T08:39:43;99846.66;;;-2.76;100.00
68193;BME280;55012;47.562;18.414;2023-12-20T08:42:09;99844.16;;;-2.66;100.00
68193;BME280;55012;47.562;18.414;2023-12-20T08:44:34;99841.72;;;-2.51;100.00
68193;BME280;55012;47.562;18.414;2023-12-20T08:47:00;99855.47;;;-2.32;100.00
68193;BME280;55012;47.562;18.414;2023-12-20T08:49:25;99851.38;;;-2.23;100.00
68193;BME280;55012;47.562;18.414;2023-12-20T08:51:50;99849.91;;;-2.14;100.00
68193;BME280;55012;47.562;18.414;2023-12-20T08:54:16;99858.66;;;-1.91;100.00
68193;BME280;55012;47.562;18.414;2023-12-20T08:56:42;99850.03;;;-1.82;100.00
68193;BME280;55012;47.562;18.414;2023-12-20T08:59:08;99856.78;;;-1.69;100.00
68193;BME280;55012;47.562;18.414;2023-12-20T09:01:34;99853.75;;;-1.56;100.00
68193;BME280;55012;47.562;18.414;2023-12-20T09:04:00;99852.28;;;-1.42;100.00
68193;BME280;55012;47.562;18.414;2023-12-20T09:06:25;99854.28;;;-1.27;100.00
68193;BME280;55012;47.562;18.414;2023-12-20T09:08:51;99846.41;;;-1.17;100.00
68193;BME280;55012;47.562;18.414;2023-12-20T09:11:16;99851.25;;;-1.08;100.00
68193;BME280;55012;47.562;18.414;2023-12-20T09:13:42;99845.00;;;-0.97;100.00
68193;BME280;55012;47.562;18.414;2023-12-20T09:16:09;99837.63;;;-0.85;100.00
68193;BME280;55012;47.562;18.414;2023-12-20T09:18:35;99831.34;;;-0.74;100.00
68193;BME280;55012;47.562;18.414;2023-12-20T09:21:00;99836.47;;;-0.62;100.00
68193;BME280;55012;47.562;18.414;2023-12-20T09:23:25;99832.75;;;-0.61;100.00
68193;BME280;55012;47.562;18.414;2023-12-20T09:25:51;99820.25;;;-0.66;100.00
68193;BME280;55012;47.562;18.414;2023-12-20T09:28:16;99810.91;;;-0.73;100.00
68193;BME280;55012;47.562;18.414;2023-12-20T09:30:42;99803.16;;;-0.75;100.00
68193;BME280;55012;47.562;18.414;2023-12-20T09:33:07;99798.63;;;-0.79;100.00
68193;BME280;55012;47.562;18.414;2023-12-20T09:35:33;99795.44;;;-0.81;100.00
68193;BME280;55012;47.562;18.414;2023-12-20T09:37:58;99779.41;;;-0.97;100.00
68193;BME280;55012;47.562;18.414;2023-12-20T09:40:26;99789.91;;;-1.12;100.00
68193;BME280;55012;47.562;18.414;2023-12-20T09:45:20;99770.78;;;-1.46;100.00
68193;BME280;55012;47.562;18.414;2023-12-20T09:47:47;99784.66;;;-1.39;100.00
68193;BME280;55012;47.562;18.414;2023-12-20T09:50:13;99780.69;;;-1.36;100.00
68193;BME280;55012;47.562;18.414;2023-12-20T09:52:39;99774.97;;;-1.23;100.00
68193;BME280;55012;47.562;18.414;2023-12-20T09:55:06;99786.72;;;-1.09;100.00
68193;BME280;55012;47.562;18.414;2023-12-20T09:57:33;99786.72;;;-1.14;100.00
68193;BME280;55012;47.562;18.414;2023-12-20T09:59:59;99783.75;;;-1.18;100.00
68193;BME280;55012;47.562;18.414;2023-12-20T10:02:25;99782.03;;;-1.34;100.00
68193;BME280;55012;47.562;18.414;2023-12-20T10:04:55;99774.88;;;-1.33;100.00
68193;BME280;55012;47.562;18.414;2023-12-20T10:07:20;99778.66;;;-1.24;100.00
68193;BME280;55012;47.562;18.414;2023-12-20T10:09:47;99779.22;;;-1.22;100.00
68193;BME280;55012;47.562;18.414;2023-12-20T10:12:13;99785.91;;;-1.15;100.00
68193;BME280;55012;47.562;18.414;2023-12-20T10:14:39;99784.13;;;-1.04;100.00
68193;BME280;55012;47.562;18.414;2023-12-20T10:17:05;99785.31;;;-0.90;100.00
68193;BME280;55012;47.562;18.414;2023-12-20T10:19:31;99793.63;;;-0.71;100.00
68193;BME280;55012;47.562;18.414;2023-12-20T10:22:00;99792.16;;;-0.51;100.00
68193;BME280;55012;47.562;18.414;2023-12-20T10:24:28;99797.81;;;-0.38;100.00
68193;BME280;55012;47.562;18.414;2023-12-20T10:27:04;99787.47;;;-0.29;100.00
68193;BME280;55012;47.562;18.414;2023-12-20T10:29:34;99780.09;;;-0.12;100.00
68193;BME280;55012;47.562;18.414;2023-12-20T10:34:45;99797.78;;;0.35;100.00
68193;BME280;55012;47.562;18.414;2023-12-20T10:37:11;99773.84;;;0.45;100.00
68193;BME280;55012;47.562;18.414;2023-12-20T10:39:36;99783.19;;;0.68;100.00
68193;BME280;55012;47.562;18.414;2023-12-20T10:42:02;99770.94;;;0.77;100.00
68193;BME280;55012;47.562;18.414;2023-12-20T10:44:28;99775.41;;;1.07;100.00
68193;BME280;55012;47.562;18.414;2023-12-20T10:46:53;99760.97;;;1.39;100.00
68193;BME280;55012;47.562;18.414;2023-12-20T10:49:24;99749.69;;;1.62;100.00
68193;BME280;55012;47.562;18.414;2023-12-20T10:51:52;99748.56;;;1.79;100.00
68193;BME280;55012;47.562;18.414;2023-12-20T10:54:19;99738.31;;;2.01;100.00
68193;BME280;55012;47.562;18.414;2023-12-20T10:56:45;99736.56;;;2.20;100.00
68193;BME280;55012;47.562;18.414;2023-12-20T10:59:11;99724.81;;;2.21;100.00
68193;BME280;55012;47.562;18.414;2023-12-20T11:01:38;99715.19;;;2.25;100.00
68193;BME280;55012;47.562;18.414;2023-12-20T11:04:06;99703.97;;;2.29;100.00
68193;BME280;55012;47.562;18.414;2023-12-20T11:09:17;99688.66;;;2.39;100.00
68193;BME280;55012;47.562;18.414;2023-12-20T11:11:59;99682.44;;;2.49;100.00
68193;BME280;55012;47.562;18.414;2023-12-20T11:17:11;99678.50;;;2.70;100.00
68193;BME280;55012;47.562;18.414;2023-12-20T11:22:25;99678.75;;;3.22;100.00
68193;BME280;55012;47.562;18.414;2023-12-20T11:24:52;99671.81;;;3.45;100.00
68193;BME280;55012;47.562;18.414;2023-12-20T11:27:18;99673.22;;;3.61;100.00
68193;BME280;55012;47.562;18.414;2023-12-20T11:29:54;99677.72;;;3.84;100.00
68193;BME280;55012;47.562;18.414;2023-12-20T11:35:00;99644.22;;;4.06;100.00
68193;BME280;55012;47.562;18.414;2023-12-20T11:37:30;99658.66;;;4.23;100.00
68193;BME280;55012;47.562;18.414;2023-12-20T11:40:06;99634.03;;;4.21;100.00
68193;BME280;55012;47.562;18.414;2023-12-20T11:42:39;99636.72;;;4.21;100.00
68193;BME280;55012;47.562;18.414;2023-12-20T11:45:08;99620.75;;;4.16;100.00
68193;BME280;55012;47.562;18.414;2023-12-20T11:47:33;99619.16;;;4.15;100.00
68193;BME280;55012;47.562;18.414;2023-12-20T11:50:00;99599.53;;;4.20;100.00
68193;BME280;55012;47.562;18.414;2023-12-20T11:52:28;99609.44;;;4.19;100.00
68193;BME280;55012;47.562;18.414;2023-12-20T11:54:54;99586.44;;;4.18;100.00
68193;BME280;55012;47.562;18.414;2023-12-20T11:57:19;99593.06;;;4.07;100.00
68193;BME280;55012;47.562;18.414;2023-12-20T11:59:44;99581.63;;;4.02;100.00
68193;BME280;55012;47.562;18.414;2023-12-20T12:02:11;99570.63;;;4.03;100.00
68193;BME280;55012;47.562;18.414;2023-12-20T12:04:37;99576.63;;;4.14;100.00
68193;BME280;55012;47.562;18.414;2023-12-20T12:07:02;99573.66;;;4.15;100.00
68193;BME280;55012;47.562;18.414;2023-12-20T12:09:28;99580.97;;;4.10;100.00
68193;BME280;55012;47.562;18.414;2023-12-20T12:11:54;99597.09;;;4.05;100.00
68193;BME280;55012;47.562;18.414;2023-12-20T12:14:20;99603.63;;;3.99;100.00
68193;BME280;55012;47.562;18.414;2023-12-20T12:16:46;99603.91;;;3.97;100.00
68193;BME280;55012;47.562;18.414;2023-12-20T12:19:24;99601.03;;;3.93;100.00
68193;BME280;55012;47.562;18.414;2023-12-20T12:22:08;99598.72;;;3.87;100.00
68193;BME280;55012;47.562;18.414;2023-12-20T12:24:45;99609.56;;;3.77;100.00
68193;BME280;55012;47.562;18.414;2023-12-20T12:27:14;99621.13;;;3.72;100.00
68193;BME280;55012;47.562;18.414;2023-12-20T12:29:40;99614.00;;;3.67;100.00
68193;BME280;55012;47.562;18.414;2023-12-20T12:32:07;99611.81;;;3.70;100.00
68193;BME280;55012;47.562;18.414;2023-12-20T12:34:33;99630.25;;;3.71;100.00
68193;BME280;55012;47.562;18.414;2023-12-20T12:37:02;99618.84;;;3.65;100.00
68193;BME280;55012;47.562;18.414;2023-12-20T12:39:29;99611.97;;;3.59;100.00
68193;BME280;55012;47.562;18.414;2023-12-20T12:41:55;99622.72;;;3.54;100.00
68193;BME280;55012;47.562;18.414;2023-12-20T12:44:20;99634.66;;;3.43;100.00
68193;BME280;55012;47.562;18.414;2023-12-20T12:46:49;99618.75;;;3.33;100.00
68193;BME280;55012;47.562;18.414;2023-12-20T12:49:19;99623.88;;;3.29;100.00